sensor_id;sensor_type;location;lat;lon;timestamp;P1;durP1;ratioP1;P2;durP2;ratioP2
20241;SDS011;10279;46.388;8.116;2023-01-16T00:01:22;0.83;;;0.60;;
20241;SDS011;10279;46.388;8.116;2023-01-16T00:03:50;0.90;;;0.63;;
20241;SDS011;10279;46.388;8.116;2023-01-16T00:06:18;1.30;;;0.70;;
20241;SDS011;10279;46.388;8.116;2023-01-16T00:08:45;0.60;;;0.50;;
20241;SDS011;10279;46.388;8.116;2023-01-16T00:11:14;1.00;;;0.50;;
20241;SDS011;10279;46.388;8.116;2023-01-16T00:13:42;0.73;;;0.60;;
20241;SDS011;10279;46.388;8.116;2023-01-16T00:16:09;0.70;;;0.50;;
20241;SDS011;10279;46.388;8.116;2023-01-16T00:18:37;0.57;;;0.50;;
20241;SDS011;10279;46.388;8.116;2023-01-16T00:21:04;0.40;;;0.40;;
20241;SDS011;10279;46.388;8.116;2023-01-16T00:23:31;0.43;;;0.40;;
20241;SDS011;10279;46.388;8.116;2023-01-16T00:25:59;0.30;;;0.30;;
20241;SDS011;10279;46.388;8.116;2023-01-16T00:28:26;1.10;;;0.50;;
20241;SDS011;10279;46.388;8.116;2023-01-16T00:30:54;0.83;;;0.57;;
20241;SDS011;10279;46.388;8.116;2023-01-16T00:33:21;0.70;;;0.70;;
20241;SDS011;10279;46.388;8.116;2023-01-16T00:35:49;0.93;;;0.60;;
20241;SDS011;10279;46.388;8.116;2023-01-16T00:38:16;0.60;;;0.57;;
20241;SDS011;10279;46.388;8.116;2023-01-16T00:40:43;0.60;;;0.60;;
20241;SDS011;10279;46.388;8.116;2023-01-16T00:43:11;0.60;;;0.50;;
20241;SDS011;10279;46.388;8.116;2023-01-16T00:45:38;0.60;;;0.40;;
20241;SDS011;10279;46.388;8.116;2023-01-16T00:48:06;0.50;;;0.50;;
20241;SDS011;10279;46.388;8.116;2023-01-16T00:50:34;1.60;;;0.53;;
20241;SDS011;10279;46.388;8.116;2023-01-16T00:53:01;1.67;;;0.50;;
20241;SDS011;10279;46.388;8.116;2023-01-16T00:55:28;0.60;;;0.40;;
20241;SDS011;10279;46.388;8.116;2023-01-16T00:57:56;0.70;;;0.67;;
20241;SDS011;10279;46.388;8.116;2023-01-16T01:00:23;0.53;;;0.40;;
20241;SDS011;10279;46.388;8.116;2023-01-16T01:02:51;0.43;;;0.40;;
20241;SDS011;10279;46.388;8.116;2023-01-16T01:05:19;0.50;;;0.40;;
20241;SDS011;10279;46.388;8.116;2023-01-16T01:07:47;0.40;;;0.40;;
20241;SDS011;10279;46.388;8.116;2023-01-16T01:10:14;0.50;;;0.50;;
20241;SDS011;10279;46.388;8.116;2023-01-16T01:12:45;0.97;;;0.37;;
20241;SDS011;10279;46.388;8.116;2023-01-16T01:15:12;0.80;;;0.40;;
20241;SDS011;10279;46.388;8.116;2023-01-16T01:17:39;0.93;;;0.50;;
20241;SDS011;10279;46.388;8.116;2023-01-16T01:20:07;0.50;;;0.50;;
20241;SDS011;10279;46.388;8.116;2023-01-16T01:22:35;0.30;;;0.30;;
20241;SDS011;10279;46.388;8.116;2023-01-16T01:25:02;1.23;;;0.43;;
20241;SDS011;10279;46.388;8.116;2023-01-16T01:27:29;0.40;;;0.37;;
20241;SDS011;10279;46.388;8.116;2023-01-16T01:29:57;1.10;;;0.70;;
20241;SDS011;10279;46.388;8.116;2023-01-16T01:32:24;0.40;;;0.40;;
20241;SDS011;10279;46.388;8.116;2023-01-16T01:34:51;1.17;;;0.40;;
20241;SDS011;10279;46.388;8.116;2023-01-16T01:37:19;0.57;;;0.50;;
20241;SDS011;10279;46.388;8.116;2023-01-16T01:39:46;1.43;;;0.50;;
20241;SDS011;10279;46.388;8.116;2023-01-16T01:42:13;0.40;;;0.40;;
20241;SDS011;10279;46.388;8.116;2023-01-16T01:45:09;0.97;;;0.80;;
20241;SDS011;10279;46.388;8.116;2023-01-16T01:47:38;0.50;;;0.50;;
20241;SDS011;10279;46.388;8.116;2023-01-16T01:50:12;0.83;;;0.57;;
20241;SDS011;10279;46.388;8.116;2023-01-16T01:52:42;0.63;;;0.40;;
20241;SDS011;10279;46.388;8.116;2023-01-16T01:55:12;0.40;;;0.40;;
20241;SDS011;10279;46.388;8.116;2023-01-16T01:57:41;0.30;;;0.30;;
20241;SDS011;10279;46.388;8.116;2023-01-16T02:00:11;3.20;;;0.47;;
20241;SDS011;10279;46.388;8.116;2023-01-16T02:02:40;0.37;;;0.37;;
20241;SDS011;10279;46.388;8.116;2023-01-16T02:05:08;0.60;;;0.60;;
20241;SDS011;10279;46.388;8.116;2023-01-16T02:07:36;0.27;;;0.27;;
20241;SDS011;10279;46.388;8.116;2023-01-16T02:10:27;0.30;;;0.30;;
20241;SDS011;10279;46.388;8.116;2023-01-16T02:12:53;0.40;;;0.40;;
20241;SDS011;10279;46.388;8.116;2023-01-16T02:15:21;0.53;;;0.30;;
20241;SDS011;10279;46.388;8.116;2023-01-16T02:17:49;1.20;;;0.30;;
20241;SDS011;10279;46.388;8.116;2023-01-16T02:20:53;0.40;;;0.40;;
20241;SDS011;10279;46.388;8.116;2023-01-16T02:31:41;0.40;;;0.40;;
20241;SDS011;10279;46.388;8.116;2023-01-16T02:34:23;0.30;;;0.30;;
20241;SDS011;10279;46.388;8.116;2023-01-16T02:36:57;0.83;;;0.50;;
20241;SDS011;10279;46.388;8.116;2023-01-16T02:39:48;0.30;;;0.30;;
20241;SDS011;10279;46.388;8.116;2023-01-16T02:42:22;0.40;;;0.33;;
20241;SDS011;10279;46.388;8.116;2023-01-16T02:49:48;0.60;;;0.50;;
20241;SDS011;10279;46.388;8.116;2023-01-16T02:52:22;0.50;;;0.40;;
20241;SDS011;10279;46.388;8.116;2023-01-16T02:54:59;0.70;;;0.60;;
20241;SDS011;10279;46.388;8.116;2023-01-16T02:57:32;1.17;;;0.70;;
20241;SDS011;10279;46.388;8.116;2023-01-16T03:00:02;0.43;;;0.30;;
20241;SDS011;10279;46.388;8.116;2023-01-16T03:02:30;0.30;;;0.30;;
20241;SDS011;10279;46.388;8.116;2023-01-16T03:04:57;0.40;;;0.40;;
20241;SDS011;10279;46.388;8.116;2023-01-16T03:17:37;0.50;;;0.40;;
20241;SDS011;10279;46.388;8.116;2023-01-16T03:23:12;1.10;;;0.50;;
20241;SDS011;10279;46.388;8.116;2023-01-16T03:25:48;0.33;;;0.33;;
20241;SDS011;10279;46.388;8.116;2023-01-16T03:35:48;0.40;;;0.40;;
20241;SDS011;10279;46.388;8.116;2023-01-16T03:38:17;0.40;;;0.40;;
20241;SDS011;10279;46.388;8.116;2023-01-16T03:40:46;0.40;;;0.40;;
20241;SDS011;10279;46.388;8.116;2023-01-16T03:43:27;0.53;;;0.43;;
20241;SDS011;10279;46.388;8.116;2023-01-16T03:45:58;0.30;;;0.30;;
20241;SDS011;10279;46.388;8.116;2023-01-16T03:48:35;0.30;;;0.27;;
20241;SDS011;10279;46.388;8.116;2023-01-16T03:51:06;0.30;;;0.30;;
20241;SDS011;10279;46.388;8.116;2023-01-16T03:53:42;0.30;;;0.30;;
20241;SDS011;10279;46.388;8.116;2023-01-16T03:58:50;0.40;;;0.37;;
20241;SDS011;10279;46.388;8.116;2023-01-16T04:04:09;0.63;;;0.40;;
20241;SDS011;10279;46.388;8.116;2023-01-16T04:09:19;0.40;;;0.40;;
20241;SDS011;10279;46.388;8.116;2023-01-16T04:11:48;0.53;;;0.37;;
20241;SDS011;10279;46.388;8.116;2023-01-16T04:14:17;0.40;;;0.40;;
20241;SDS011;10279;46.388;8.116;2023-01-16T04:16:46;0.30;;;0.30;;
20241;SDS011;10279;46.388;8.116;2023-01-16T04:19:16;0.73;;;0.40;;
20241;SDS011;10279;46.388;8.116;2023-01-16T04:21:46;1.70;;;0.57;;
20241;SDS011;10279;46.388;8.116;2023-01-16T04:24:14;0.50;;;0.50;;
20241;SDS011;10279;46.388;8.116;2023-01-16T04:26:42;0.30;;;0.30;;
20241;SDS011;10279;46.388;8.116;2023-01-16T04:29:09;0.20;;;0.20;;
20241;SDS011;10279;46.388;8.116;2023-01-16T04:31:36;0.40;;;0.40;;
20241;SDS011;10279;46.388;8.116;2023-01-16T04:34:04;0.40;;;0.40;;
20241;SDS011;10279;46.388;8.116;2023-01-16T04:36:31;0.40;;;0.30;;
20241;SDS011;10279;46.388;8.116;2023-01-16T04:38:58;0.40;;;0.40;;
20241;SDS011;10279;46.388;8.116;2023-01-16T04:41:26;0.20;;;0.20;;
20241;SDS011;10279;46.388;8.116;2023-01-16T04:44:04;0.77;;;0.43;;
20241;SDS011;10279;46.388;8.116;2023-01-16T04:46:31;0.97;;;0.40;;
20241;SDS011;10279;46.388;8.116;2023-01-16T04:48:59;0.40;;;0.40;;
20241;SDS011;10279;46.388;8.116;2023-01-16T04:51:26;1.53;;;0.30;;
20241;SDS011;10279;46.388;8.116;2023-01-16T04:53:55;0.20;;;0.20;;
20241;SDS011;10279;46.388;8.116;2023-01-16T04:56:23;0.40;;;0.40;;
20241;SDS011;10279;46.388;8.116;2023-01-16T04:58:50;0.40;;;0.40;;
20241;SDS011;10279;46.388;8.116;2023-01-16T05:01:19;0.30;;;0.30;;
20241;SDS011;10279;46.388;8.116;2023-01-16T05:03:47;0.33;;;0.33;;
20241;SDS011;10279;46.388;8.116;2023-01-16T05:06:15;0.30;;;0.30;;
20241;SDS011;10279;46.388;8.116;2023-01-16T05:08:42;0.30;;;0.30;;
20241;SDS011;10279;46.388;8.116;2023-01-16T05:11:10;0.93;;;0.30;;
20241;SDS011;10279;46.388;8.116;2023-01-16T05:13:37;0.40;;;0.30;;
20241;SDS011;10279;46.388;8.116;2023-01-16T05:16:05;0.30;;;0.30;;
20241;SDS011;10279;46.388;8.116;2023-01-16T05:18:32;1.27;;;0.40;;
20241;SDS011;10279;46.388;8.116;2023-01-16T05:21:00;0.30;;;0.30;;
20241;SDS011;10279;46.388;8.116;2023-01-16T05:23:28;0.40;;;0.30;;
20241;SDS011;10279;46.388;8.116;2023-01-16T05:25:55;0.23;;;0.23;;
20241;SDS011;10279;46.388;8.116;2023-01-16T05:28:22;0.30;;;0.30;;
20241;SDS011;10279;46.388;8.116;2023-01-16T05:30:50;0.80;;;0.50;;
20241;SDS011;10279;46.388;8.116;2023-01-16T05:33:18;0.47;;;0.30;;
20241;SDS011;10279;46.388;8.116;2023-01-16T05:35:45;0.30;;;0.30;;
20241;SDS011;10279;46.388;8.116;2023-01-16T05:38:14;0.37;;;0.33;;
20241;SDS011;10279;46.388;8.116;2023-01-16T05:40:42;0.37;;;0.37;;
20241;SDS011;10279;46.388;8.116;2023-01-16T05:43:10;0.80;;;0.50;;
20241;SDS011;10279;46.388;8.116;2023-01-16T05:45:38;0.40;;;0.40;;
20241;SDS011;10279;46.388;8.116;2023-01-16T05:48:05;0.33;;;0.30;;
20241;SDS011;10279;46.388;8.116;2023-01-16T05:50:32;0.20;;;0.20;;
20241;SDS011;10279;46.388;8.116;2023-01-16T05:53:00;0.40;;;0.40;;
20241;SDS011;10279;46.388;8.116;2023-01-16T05:55:27;1.20;;;0.50;;
20241;SDS011;10279;46.388;8.116;2023-01-16T05:57:55;0.30;;;0.30;;
20241;SDS011;10279;46.388;8.116;2023-01-16T06:00:22;0.93;;;0.30;;
20241;SDS011;10279;46.388;8.116;2023-01-16T06:02:50;0.87;;;0.40;;
20241;SDS011;10279;46.388;8.116;2023-01-16T06:05:17;0.40;;;0.30;;
20241;SDS011;10279;46.388;8.116;2023-01-16T06:07:44;0.40;;;0.40;;
20241;SDS011;10279;46.388;8.116;2023-01-16T06:10:12;0.40;;;0.40;;
20241;SDS011;10279;46.388;8.116;2023-01-16T06:12:41;0.60;;;0.60;;
20241;SDS011;10279;46.388;8.116;2023-01-16T06:15:09;1.20;;;0.90;;
20241;SDS011;10279;46.388;8.116;2023-01-16T06:17:37;0.60;;;0.60;;
20241;SDS011;10279;46.388;8.116;2023-01-16T06:20:04;0.60;;;0.60;;
20241;SDS011;10279;46.388;8.116;2023-01-16T06:22:32;1.23;;;0.37;;
20241;SDS011;10279;46.388;8.116;2023-01-16T06:24:59;0.30;;;0.30;;
20241;SDS011;10279;46.388;8.116;2023-01-16T06:27:27;0.40;;;0.40;;
20241;SDS011;10279;46.388;8.116;2023-01-16T06:29:54;1.07;;;0.50;;
20241;SDS011;10279;46.388;8.116;2023-01-16T06:32:22;0.40;;;0.40;;
20241;SDS011;10279;46.388;8.116;2023-01-16T06:34:49;0.57;;;0.50;;
20241;SDS011;10279;46.388;8.116;2023-01-16T06:37:17;0.73;;;0.50;;
20241;SDS011;10279;46.388;8.116;2023-01-16T06:39:44;0.77;;;0.50;;
20241;SDS011;10279;46.388;8.116;2023-01-16T06:42:12;0.97;;;0.60;;
20241;SDS011;10279;46.388;8.116;2023-01-16T06:44:39;1.23;;;0.67;;
20241;SDS011;10279;46.388;8.116;2023-01-16T06:47:06;0.50;;;0.50;;
20241;SDS011;10279;46.388;8.116;2023-01-16T06:49:35;0.40;;;0.40;;
20241;SDS011;10279;46.388;8.116;2023-01-16T06:52:02;1.10;;;0.60;;
20241;SDS011;10279;46.388;8.116;2023-01-16T06:54:29;1.47;;;0.87;;
20241;SDS011;10279;46.388;8.116;2023-01-16T06:56:57;0.90;;;0.80;;
20241;SDS011;10279;46.388;8.116;2023-01-16T06:59:24;0.50;;;0.50;;
20241;SDS011;10279;46.388;8.116;2023-01-16T07:01:52;0.97;;;0.50;;
20241;SDS011;10279;46.388;8.116;2023-01-16T07:04:19;0.97;;;0.83;;
20241;SDS011;10279;46.388;8.116;2023-01-16T07:06:47;1.40;;;0.60;;
20241;SDS011;10279;46.388;8.116;2023-01-16T07:09:16;0.67;;;0.50;;
20241;SDS011;10279;46.388;8.116;2023-01-16T07:11:44;5.93;;;0.70;;
20241;SDS011;10279;46.388;8.116;2023-01-16T07:14:11;1.77;;;0.70;;
20241;SDS011;10279;46.388;8.116;2023-01-16T07:16:57;2.20;;;1.00;;
20241;SDS011;10279;46.388;8.116;2023-01-16T07:19:43;1.23;;;0.77;;
20241;SDS011;10279;46.388;8.116;2023-01-16T07:22:29;1.63;;;0.90;;
20241;SDS011;10279;46.388;8.116;2023-01-16T07:25:09;1.73;;;0.90;;
20241;SDS011;10279;46.388;8.116;2023-01-16T07:27:37;1.33;;;0.93;;
20241;SDS011;10279;46.388;8.116;2023-01-16T07:30:05;3.47;;;1.00;;
20241;SDS011;10279;46.388;8.116;2023-01-16T07:32:33;3.07;;;0.97;;
20241;SDS011;10279;46.388;8.116;2023-01-16T07:35:01;1.03;;;0.93;;
20241;SDS011;10279;46.388;8.116;2023-01-16T07:37:28;1.20;;;0.93;;
20241;SDS011;10279;46.388;8.116;2023-01-16T07:39:55;1.47;;;0.70;;
20241;SDS011;10279;46.388;8.116;2023-01-16T07:42:23;0.70;;;0.70;;
20241;SDS011;10279;46.388;8.116;2023-01-16T07:44:50;1.03;;;0.70;;
20241;SDS011;10279;46.388;8.116;2023-01-16T07:47:20;0.40;;;0.40;;
20241;SDS011;10279;46.388;8.116;2023-01-16T07:49:47;0.80;;;0.60;;
20241;SDS011;10279;46.388;8.116;2023-01-16T07:52:15;1.30;;;0.67;;
20241;SDS011;10279;46.388;8.116;2023-01-16T07:54:43;2.03;;;0.50;;
20241;SDS011;10279;46.388;8.116;2023-01-16T07:57:11;0.60;;;0.60;;
20241;SDS011;10279;46.388;8.116;2023-01-16T07:59:38;1.13;;;0.60;;
20241;SDS011;10279;46.388;8.116;2023-01-16T08:02:07;0.63;;;0.50;;
20241;SDS011;10279;46.388;8.116;2023-01-16T08:04:34;1.30;;;0.70;;
20241;SDS011;10279;46.388;8.116;2023-01-16T08:07:02;1.80;;;0.70;;
20241;SDS011;10279;46.388;8.116;2023-01-16T08:09:30;0.97;;;0.70;;
20241;SDS011;10279;46.388;8.116;2023-01-16T08:11:57;1.10;;;0.80;;
20241;SDS011;10279;46.388;8.116;2023-01-16T08:14:24;2.43;;;1.63;;
20241;SDS011;10279;46.388;8.116;2023-01-16T08:16:52;2.60;;;1.27;;
20241;SDS011;10279;46.388;8.116;2023-01-16T08:19:21;2.10;;;0.63;;
20241;SDS011;10279;46.388;8.116;2023-01-16T08:21:49;0.60;;;0.57;;
20241;SDS011;10279;46.388;8.116;2023-01-16T08:24:16;2.37;;;0.57;;
20241;SDS011;10279;46.388;8.116;2023-01-16T08:26:44;1.17;;;1.07;;
20241;SDS011;10279;46.388;8.116;2023-01-16T08:29:12;2.30;;;0.80;;
20241;SDS011;10279;46.388;8.116;2023-01-16T08:31:39;0.70;;;0.70;;
20241;SDS011;10279;46.388;8.116;2023-01-16T08:34:06;0.90;;;0.77;;
20241;SDS011;10279;46.388;8.116;2023-01-16T08:36:34;0.97;;;0.57;;
20241;SDS011;10279;46.388;8.116;2023-01-16T08:39:01;1.17;;;0.73;;
20241;SDS011;10279;46.388;8.116;2023-01-16T08:41:29;1.10;;;0.30;;
20241;SDS011;10279;46.388;8.116;2023-01-16T08:44:15;1.63;;;1.10;;
20241;SDS011;10279;46.388;8.116;2023-01-16T08:47:02;3.77;;;2.10;;
20241;SDS011;10279;46.388;8.116;2023-01-16T08:49:49;5.20;;;2.70;;
20241;SDS011;10279;46.388;8.116;2023-01-16T08:52:35;4.17;;;1.80;;
20241;SDS011;10279;46.388;8.116;2023-01-16T08:55:03;1.40;;;1.07;;
20241;SDS011;10279;46.388;8.116;2023-01-16T08:57:31;1.80;;;0.97;;
20241;SDS011;10279;46.388;8.116;2023-01-16T09:00:00;5.57;;;2.43;;
20241;SDS011;10279;46.388;8.116;2023-01-16T09:02:27;4.70;;;2.63;;
20241;SDS011;10279;46.388;8.116;2023-01-16T09:04:58;5.93;;;1.20;;
20241;SDS011;10279;46.388;8.116;2023-01-16T09:07:25;0.60;;;0.47;;
20241;SDS011;10279;46.388;8.116;2023-01-16T09:09:53;3.57;;;1.13;;
20241;SDS011;10279;46.388;8.116;2023-01-16T09:12:21;4.23;;;1.40;;
20241;SDS011;10279;46.388;8.116;2023-01-16T09:15:07;3.10;;;1.60;;
20241;SDS011;10279;46.388;8.116;2023-01-16T09:17:34;4.90;;;1.27;;
20241;SDS011;10279;46.388;8.116;2023-01-16T09:20:02;2.23;;;0.73;;
20241;SDS011;10279;46.388;8.116;2023-01-16T09:22:29;0.83;;;0.40;;
20241;SDS011;10279;46.388;8.116;2023-01-16T09:24:57;1.03;;;0.50;;
20241;SDS011;10279;46.388;8.116;2023-01-16T09:27:24;0.93;;;0.50;;
20241;SDS011;10279;46.388;8.116;2023-01-16T09:29:52;2.30;;;0.70;;
20241;SDS011;10279;46.388;8.116;2023-01-16T09:32:19;3.07;;;0.97;;
20241;SDS011;10279;46.388;8.116;2023-01-16T09:34:47;4.43;;;0.90;;
20241;SDS011;10279;46.388;8.116;2023-01-16T09:37:14;3.83;;;0.90;;
20241;SDS011;10279;46.388;8.116;2023-01-16T09:39:41;1.80;;;0.97;;
20241;SDS011;10279;46.388;8.116;2023-01-16T09:45:14;2.60;;;1.10;;
20241;SDS011;10279;46.388;8.116;2023-01-16T09:47:44;5.50;;;1.10;;
20241;SDS011;10279;46.388;8.116;2023-01-16T09:50:20;6.43;;;1.70;;
20241;SDS011;10279;46.388;8.116;2023-01-16T09:52:50;1.93;;;1.03;;
20241;SDS011;10279;46.388;8.116;2023-01-16T09:55:40;2.90;;;1.23;;
20241;SDS011;10279;46.388;8.116;2023-01-16T09:58:26;2.27;;;1.03;;
20241;SDS011;10279;46.388;8.116;2023-01-16T10:01:19;6.53;;;1.23;;
20241;SDS011;10279;46.388;8.116;2023-01-16T10:03:47;1.27;;;0.70;;
20241;SDS011;10279;46.388;8.116;2023-01-16T10:06:20;0.83;;;0.70;;
20241;SDS011;10279;46.388;8.116;2023-01-16T10:11:40;2.07;;;0.43;;
20241;SDS011;10279;46.388;8.116;2023-01-16T10:14:20;4.63;;;0.93;;
20241;SDS011;10279;46.388;8.116;2023-01-16T10:17:11;2.50;;;0.70;;
20241;SDS011;10279;46.388;8.116;2023-01-16T10:30:29;2.93;;;1.00;;
20241;SDS011;10279;46.388;8.116;2023-01-16T10:35:39;15.83;;;1.90;;
20241;SDS011;10279;46.388;8.116;2023-01-16T10:41:20;2.03;;;0.70;;
20241;SDS011;10279;46.388;8.116;2023-01-16T10:44:27;2.23;;;0.67;;
20241;SDS011;10279;46.388;8.116;2023-01-16T10:47:16;4.30;;;0.77;;
20241;SDS011;10279;46.388;8.116;2023-01-16T10:50:03;0.93;;;0.40;;
20241;SDS011;10279;46.388;8.116;2023-01-16T10:52:31;1.33;;;0.77;;
20241;SDS011;10279;46.388;8.116;2023-01-16T10:54:59;0.57;;;0.50;;
20241;SDS011;10279;46.388;8.116;2023-01-16T10:57:27;0.67;;;0.50;;
20241;SDS011;10279;46.388;8.116;2023-01-16T11:00:05;2.70;;;0.70;;
20241;SDS011;10279;46.388;8.116;2023-01-16T11:02:34;1.30;;;0.80;;
20241;SDS011;10279;46.388;8.116;2023-01-16T11:05:23;1.83;;;0.80;;
20241;SDS011;10279;46.388;8.116;2023-01-16T11:07:55;1.77;;;0.80;;
20241;SDS011;10279;46.388;8.116;2023-01-16T11:10:23;1.50;;;0.77;;
20241;SDS011;10279;46.388;8.116;2023-01-16T11:12:51;3.03;;;1.10;;
20241;SDS011;10279;46.388;8.116;2023-01-16T11:15:37;1.00;;;0.90;;
20241;SDS011;10279;46.388;8.116;2023-01-16T11:18:32;1.70;;;0.90;;
20241;SDS011;10279;46.388;8.116;2023-01-16T11:21:01;1.20;;;0.73;;
20241;SDS011;10279;46.388;8.116;2023-01-16T11:23:41;3.20;;;1.20;;
20241;SDS011;10279;46.388;8.116;2023-01-16T11:26:09;1.73;;;0.97;;
20241;SDS011;10279;46.388;8.116;2023-01-16T11:28:37;1.90;;;1.07;;
20241;SDS011;10279;46.388;8.116;2023-01-16T11:31:11;3.90;;;1.20;;
20241;SDS011;10279;46.388;8.116;2023-01-16T11:34:01;2.07;;;1.20;;
20241;SDS011;10279;46.388;8.116;2023-01-16T11:36:27;2.17;;;0.90;;
20241;SDS011;10279;46.388;8.116;2023-01-16T11:38:57;3.17;;;1.17;;
20241;SDS011;10279;46.388;8.116;2023-01-16T11:41:29;2.17;;;1.10;;
20241;SDS011;10279;46.388;8.116;2023-01-16T11:44:18;1.20;;;0.97;;
20241;SDS011;10279;46.388;8.116;2023-01-16T11:47:06;2.83;;;1.33;;
20241;SDS011;10279;46.388;8.116;2023-01-16T11:49:42;1.73;;;1.20;;
20241;SDS011;10279;46.388;8.116;2023-01-16T11:52:12;1.57;;;1.07;;
20241;SDS011;10279;46.388;8.116;2023-01-16T11:54:41;2.33;;;1.20;;
20241;SDS011;10279;46.388;8.116;2023-01-16T12:13:15;4.53;;;1.50;;
20241;SDS011;10279;46.388;8.116;2023-01-16T12:21:43;2.30;;;1.00;;
20241;SDS011;10279;46.388;8.116;2023-01-16T12:26:44;2.27;;;1.20;;
20241;SDS011;10279;46.388;8.116;2023-01-16T12:39:53;1.37;;;0.77;;
20241;SDS011;10279;46.388;8.116;2023-01-16T12:48:11;3.33;;;1.10;;
20241;SDS011;10279;46.388;8.116;2023-01-16T12:53:38;1.50;;;0.80;;
20241;SDS011;10279;46.388;8.116;2023-01-16T12:58:44;1.60;;;0.90;;
20241;SDS011;10279;46.388;8.116;2023-01-16T13:01:15;3.37;;;1.00;;
20241;SDS011;10279;46.388;8.116;2023-01-16T13:06:12;0.70;;;0.70;;
20241;SDS011;10279;46.388;8.116;2023-01-16T13:08:45;1.77;;;1.10;;
20241;SDS011;10279;46.388;8.116;2023-01-16T13:11:19;1.50;;;0.80;;
20241;SDS011;10279;46.388;8.116;2023-01-16T13:14:08;1.40;;;0.90;;
20241;SDS011;10279;46.388;8.116;2023-01-16T13:16:42;1.63;;;1.00;;
20241;SDS011;10279;46.388;8.116;2023-01-16T13:19:15;1.23;;;1.07;;
20241;SDS011;10279;46.388;8.116;2023-01-16T13:22:02;4.87;;;1.43;;
20241;SDS011;10279;46.388;8.116;2023-01-16T13:24:53;2.13;;;1.20;;
20241;SDS011;10279;46.388;8.116;2023-01-16T13:27:24;2.03;;;1.30;;
20241;SDS011;10279;46.388;8.116;2023-01-16T13:29:54;3.03;;;1.30;;
20241;SDS011;10279;46.388;8.116;2023-01-16T13:32:28;1.10;;;0.87;;
20241;SDS011;10279;46.388;8.116;2023-01-16T13:35:43;2.57;;;1.03;;
20241;SDS011;10279;46.388;8.116;2023-01-16T13:42:56;1.10;;;0.77;;
20241;SDS011;10279;46.388;8.116;2023-01-16T13:45:45;1.40;;;0.80;;
20241;SDS011;10279;46.388;8.116;2023-01-16T13:48:49;0.70;;;0.53;;
20241;SDS011;10279;46.388;8.116;2023-01-16T13:51:14;0.87;;;0.60;;
20241;SDS011;10279;46.388;8.116;2023-01-16T13:53:45;1.87;;;0.77;;
20241;SDS011;10279;46.388;8.116;2023-01-16T13:56:14;1.00;;;0.60;;
20241;SDS011;10279;46.388;8.116;2023-01-16T13:58:42;0.90;;;0.70;;
20241;SDS011;10279;46.388;8.116;2023-01-16T14:06:46;0.53;;;0.53;;
20241;SDS011;10279;46.388;8.116;2023-01-16T14:12:23;2.10;;;0.60;;
20241;SDS011;10279;46.388;8.116;2023-01-16T14:15:13;1.00;;;0.60;;
20241;SDS011;10279;46.388;8.116;2023-01-16T14:18:01;1.80;;;0.83;;
20241;SDS011;10279;46.388;8.116;2023-01-16T14:23:22;2.63;;;0.70;;
20241;SDS011;10279;46.388;8.116;2023-01-16T14:26:12;1.70;;;0.73;;
20241;SDS011;10279;46.388;8.116;2023-01-16T14:28:45;2.87;;;1.00;;
20241;SDS011;10279;46.388;8.116;2023-01-16T14:31:20;1.33;;;0.80;;
20241;SDS011;10279;46.388;8.116;2023-01-16T14:33:49;2.07;;;0.80;;
20241;SDS011;10279;46.388;8.116;2023-01-16T14:36:17;0.83;;;0.60;;
20241;SDS011;10279;46.388;8.116;2023-01-16T14:38:46;0.87;;;0.60;;
20241;SDS011;10279;46.388;8.116;2023-01-16T14:41:15;2.13;;;1.00;;
20241;SDS011;10279;46.388;8.116;2023-01-16T14:46:52;0.70;;;0.60;;
20241;SDS011;10279;46.388;8.116;2023-01-16T14:49:40;0.87;;;0.73;;
20241;SDS011;10279;46.388;8.116;2023-01-16T14:52:47;0.63;;;0.50;;
20241;SDS011;10279;46.388;8.116;2023-01-16T14:55:44;3.13;;;0.80;;
20241;SDS011;10279;46.388;8.116;2023-01-16T14:58:16;1.47;;;0.70;;
20241;SDS011;10279;46.388;8.116;2023-01-16T15:00:47;1.70;;;0.63;;
20241;SDS011;10279;46.388;8.116;2023-01-16T15:03:20;1.00;;;0.70;;
20241;SDS011;10279;46.388;8.116;2023-01-16T15:05:49;0.87;;;0.50;;
20241;SDS011;10279;46.388;8.116;2023-01-16T15:08:21;0.70;;;0.60;;
20241;SDS011;10279;46.388;8.116;2023-01-16T15:10:51;2.63;;;0.60;;
20241;SDS011;10279;46.388;8.116;2023-01-16T15:13:26;0.47;;;0.47;;
20241;SDS011;10279;46.388;8.116;2023-01-16T15:16:17;0.57;;;0.50;;
20241;SDS011;10279;46.388;8.116;2023-01-16T15:19:18;0.70;;;0.60;;
20241;SDS011;10279;46.388;8.116;2023-01-16T15:22:13;1.80;;;0.57;;
20241;SDS011;10279;46.388;8.116;2023-01-16T15:24:45;0.90;;;0.60;;
20241;SDS011;10279;46.388;8.116;2023-01-16T15:27:16;0.40;;;0.40;;
20241;SDS011;10279;46.388;8.116;2023-01-16T15:32:14;0.63;;;0.50;;
20241;SDS011;10279;46.388;8.116;2023-01-16T15:34:48;0.60;;;0.60;;
20241;SDS011;10279;46.388;8.116;2023-01-16T15:37:30;1.87;;;0.93;;
20241;SDS011;10279;46.388;8.116;2023-01-16T15:39:59;0.90;;;0.80;;
20241;SDS011;10279;46.388;8.116;2023-01-16T15:42:29;2.53;;;0.63;;
20241;SDS011;10279;46.388;8.116;2023-01-16T15:45:17;1.93;;;0.80;;
20241;SDS011;10279;46.388;8.116;2023-01-16T15:50:43;0.63;;;0.63;;
20241;SDS011;10279;46.388;8.116;2023-01-16T15:53:11;1.00;;;0.60;;
20241;SDS011;10279;46.388;8.116;2023-01-16T15:55:41;1.03;;;0.70;;
20241;SDS011;10279;46.388;8.116;2023-01-16T15:58:12;2.83;;;0.80;;
20241;SDS011;10279;46.388;8.116;2023-01-16T16:00:40;2.93;;;0.80;;
20241;SDS011;10279;46.388;8.116;2023-01-16T16:03:16;0.60;;;0.60;;
20241;SDS011;10279;46.388;8.116;2023-01-16T16:05:47;0.60;;;0.60;;
20241;SDS011;10279;46.388;8.116;2023-01-16T16:08:17;0.83;;;0.43;;
20241;SDS011;10279;46.388;8.116;2023-01-16T16:10:45;0.67;;;0.67;;
20241;SDS011;10279;46.388;8.116;2023-01-16T16:13:32;1.17;;;0.70;;
20241;SDS011;10279;46.388;8.116;2023-01-16T16:16:00;1.80;;;0.90;;
20241;SDS011;10279;46.388;8.116;2023-01-16T16:18:51;0.90;;;0.60;;
20241;SDS011;10279;46.388;8.116;2023-01-16T16:21:19;2.80;;;0.90;;
20241;SDS011;10279;46.388;8.116;2023-01-16T16:23:53;1.00;;;0.83;;
20241;SDS011;10279;46.388;8.116;2023-01-16T16:26:20;0.83;;;0.83;;
20241;SDS011;10279;46.388;8.116;2023-01-16T16:28:48;1.47;;;1.17;;
20241;SDS011;10279;46.388;8.116;2023-01-16T16:33:58;1.77;;;1.00;;
20241;SDS011;10279;46.388;8.116;2023-01-16T16:36:26;1.13;;;0.80;;
20241;SDS011;10279;46.388;8.116;2023-01-16T16:38:55;2.63;;;0.70;;
20241;SDS011;10279;46.388;8.116;2023-01-16T16:44:23;0.90;;;0.70;;
20241;SDS011;10279;46.388;8.116;2023-01-16T16:46:55;1.10;;;0.90;;
20241;SDS011;10279;46.388;8.116;2023-01-16T16:51:50;1.43;;;0.90;;
20241;SDS011;10279;46.388;8.116;2023-01-16T16:54:17;0.97;;;0.70;;
20241;SDS011;10279;46.388;8.116;2023-01-16T16:56:48;0.93;;;0.83;;
20241;SDS011;10279;46.388;8.116;2023-01-16T16:59:18;1.20;;;1.00;;
20241;SDS011;10279;46.388;8.116;2023-01-16T17:01:47;1.00;;;0.80;;
20241;SDS011;10279;46.388;8.116;2023-01-16T17:04:15;1.20;;;0.90;;
20241;SDS011;10279;46.388;8.116;2023-01-16T17:06:44;1.00;;;0.80;;
20241;SDS011;10279;46.388;8.116;2023-01-16T17:09:12;0.97;;;0.77;;
20241;SDS011;10279;46.388;8.116;2023-01-16T17:11:40;0.77;;;0.73;;
20241;SDS011;10279;46.388;8.116;2023-01-16T17:14:08;2.13;;;1.20;;
20241;SDS011;10279;46.388;8.116;2023-01-16T17:16:36;3.23;;;1.47;;
20241;SDS011;10279;46.388;8.116;2023-01-16T17:19:20;4.03;;;2.00;;
20241;SDS011;10279;46.388;8.116;2023-01-16T17:21:49;2.57;;;1.87;;
20241;SDS011;10279;46.388;8.116;2023-01-16T17:24:17;1.87;;;1.40;;
20241;SDS011;10279;46.388;8.116;2023-01-16T17:26:45;1.37;;;1.27;;
20241;SDS011;10279;46.388;8.116;2023-01-16T17:29:13;3.70;;;1.87;;
20241;SDS011;10279;46.388;8.116;2023-01-16T17:31:44;5.27;;;4.20;;
20241;SDS011;10279;46.388;8.116;2023-01-16T17:34:12;4.00;;;2.30;;
20241;SDS011;10279;46.388;8.116;2023-01-16T17:36:40;3.33;;;2.20;;
20241;SDS011;10279;46.388;8.116;2023-01-16T17:39:08;2.23;;;1.87;;
20241;SDS011;10279;46.388;8.116;2023-01-16T17:41:36;2.80;;;1.63;;